Time;durP1;ratioP1;P1;durP2;ratioP2;P2;SDS_P1;SDS_P2;PMS_P1;PMS_P2;Temp;Humidity;BMP_temperature;BMP_pressure;BME280_temperature;BME280_humidity;BME280_pressure;Samples;Min_cycle;Max_cycle;Signal;HPM_P1;HPM_P2
2023/12/07 00:01:56;;;;;;;38.92;30.45;;;1.60;95.00;;;;;;5054245;28;20060;-50
2023/12/07 00:04:22;;;;;;;36.25;28.40;;;1.60;95.00;;;;;;5055101;28;20696;-54
2023/12/07 00:06:52;;;;;;;35.63;29.15;;;1.60;95.00;;;;;;5055702;28;20025;-54
2023/12/07 00:09:20;;;;;;;35.25;27.70;;;1.60;95.00;;;;;;5056943;28;20316;-53
2023/12/07 00:11:50;;;;;;;32.70;25.70;;;1.60;95.00;;;;;;5056865;28;20035;-54
2023/12/07 00:14:18;;;;;;;31.10;25.67;;;1.60;95.00;;;;;;5071931;28;20060;-55
2023/12/07 00:16:44;;;;;;;30.92;25.27;;;1.60;95.00;;;;;;5074682;28;20036;-55
2023/12/07 00:19:11;;;;;;;30.67;23.73;;;1.60;95.00;;;;;;5058334;28;20420;-54
2023/12/07 00:21:38;;;;;;;32.75;24.02;;;1.60;95.00;;;;;;5075429;28;20037;-53
2023/12/07 00:24:07;;;;;;;29.35;23.80;;;1.60;95.00;;;;;;5071330;28;20400;-50
2023/12/07 00:26:34;;;;;;;28.87;23.67;;;1.60;95.00;;;;;;5075369;28;20063;-51
2023/12/07 00:29:02;;;;;;;29.75;23.83;;;1.60;95.00;;;;;;5075316;28;20020;-49
2023/12/07 00:31:30;;;;;;;28.42;24.10;;;1.60;95.10;;;;;;5066171;28;20020;-50
2023/12/07 00:34:00;;;;;;;29.58;24.15;;;1.60;95.10;;;;;;5056151;28;20108;-50
2023/12/07 00:36:27;;;;;;;31.60;25.35;;;1.60;95.10;;;;;;5057147;28;20040;-51
2023/12/07 00:38:55;;;;;;;32.30;23.58;;;1.60;95.10;;;;;;5056035;28;20446;-49
2023/12/07 00:41:23;;;;;;;28.75;23.75;;;1.60;95.10;;;;;;5055973;28;20040;-49
2023/12/07 00:43:50;;;;;;;31.50;25.75;;;1.60;95.10;;;;;;5056499;28;20044;-48
2023/12/07 00:46:18;;;;;;;28.75;23.73;;;1.60;95.10;;;;;;5055319;28;20067;-49
2023/12/07 00:48:46;;;;;;;29.70;24.25;;;1.60;95.10;;;;;;5055766;28;20032;-49
2023/12/07 00:51:12;;;;;;;30.27;23.63;;;1.60;95.10;;;;;;5064664;28;20044;-48
2023/12/07 00:53:39;;;;;;;30.02;23.65;;;1.60;95.00;;;;;;5055663;28;20029;-52
2023/12/07 00:56:05;;;;;;;27.55;22.30;;;1.60;95.10;;;;;;5038332;28;20024;-49
2023/12/07 00:58:32;;;;;;;28.15;23.33;;;1.60;95.10;;;;;;5055521;28;20450;-52
2023/12/07 01:01:01;;;;;;;29.02;23.65;;;1.60;95.00;;;;;;5055794;28;20482;-49
2023/12/07 01:03:27;;;;;;;;;;;1.60;95.00;;;;;;5067972;28;20026;-51
2023/12/07 01:05:54;;;;;;;28.13;21.88;;;1.60;95.00;;;;;;5065280;28;19939;-48
2023/12/07 01:08:22;;;;;;;28.63;23.90;;;1.60;95.10;;;;;;5070256;28;20163;-54
2023/12/07 01:10:52;;;;;;;28.27;24.40;;;1.60;95.10;;;;;;5057487;28;20021;-48
2023/12/07 01:13:20;;;;;;;28.70;23.85;;;1.60;95.10;;;;;;5075226;28;20103;-52
2023/12/07 01:15:48;;;;;;;31.23;24.05;;;1.60;95.10;;;;;;5074700;28;20032;-50
2023/12/07 01:18:18;;;;;;;30.95;25.30;;;1.60;95.10;;;;;;5073864;28;20362;-51
2023/12/07 01:20:45;;;;;;;37.05;27.92;;;1.60;95.10;;;;;;5055278;28;20047;-50
2023/12/07 01:23:12;;;;;;;41.53;31.25;;;1.70;95.10;;;;;;5057243;28;20020;-48
2023/12/07 01:25:43;;;;;;;40.92;30.95;;;1.70;95.10;;;;;;5059894;28;20036;-51
2023/12/07 01:28:12;;;;;;;40.25;30.50;;;1.60;95.10;;;;;;5037165;28;20685;-50
2023/12/07 01:30:39;;;;;;;41.92;30.95;;;1.70;95.10;;;;;;5055023;28;20067;-51
2023/12/07 01:33:07;;;;;;;37.88;27.88;;;1.70;95.10;;;;;;5054972;28;20438;-49
2023/12/07 01:35:34;;;;;;;33.42;24.83;;;1.70;95.10;;;;;;5055308;28;20442;-49
2023/12/07 01:38:02;;;;;;;28.17;23.50;;;1.70;95.10;;;;;;5070735;28;20079;-49
2023/12/07 01:40:29;;;;;;;29.48;23.90;;;1.70;95.20;;;;;;5074905;28;20380;-51
2023/12/07 01:42:56;;;;;;;27.42;22.63;;;1.70;95.10;;;;;;5072326;28;20020;-48
2023/12/07 01:45:24;;;;;;;27.25;21.98;;;1.70;95.10;;;;;;5067519;28;20103;-52
2023/12/07 01:47:56;;;;;;;26.25;21.98;;;1.70;95.10;;;;;;5070169;28;20499;-51
2023/12/07 01:50:24;;;;;;;26.98;22.73;;;1.70;95.20;;;;;;5065687;28;20034;-53
2023/12/07 01:52:56;;;;;;;28.25;21.42;;;1.70;95.10;;;;;;5073586;28;20024;-51
2023/12/07 01:55:26;;;;;;;27.58;21.60;;;1.70;95.20;;;;;;5021398;28;20032;-50
2023/12/07 01:57:55;;;;;;;28.52;22.75;;;1.70;95.20;;;;;;5054818;28;20021;-51
2023/12/07 02:00:20;;;;;;;31.20;24.35;;;1.60;95.20;;;;;;5043084;28;20048;-52
2023/12/07 02:02:48;;;;;;;29.77;21.95;;;1.70;95.20;;;;;;5074614;28;20441;-48
2023/12/07 02:05:15;;;;;;;29.88;23.65;;;1.70;95.20;;;;;;5081926;28;20031;-50
2023/12/07 02:07:42;;;;;;;29.80;22.42;;;1.70;95.20;;;;;;5076109;28;20062;-50
2023/12/07 02:10:10;;;;;;;28.08;22.48;;;1.70;95.20;;;;;;5039967;28;20024;-53
2023/12/07 02:12:36;;;;;;;27.15;22.30;;;1.70;95.10;;;;;;5077149;28;20024;-52
2023/12/07 02:15:03;;;;;;;25.55;21.55;;;1.60;95.10;;;;;;5090211;28;20028;-48
2023/12/07 02:18:02;;;;;;;26.02;20.55;;;1.70;95.10;;;;;;5056428;28;20032;-48
2023/12/07 02:20:45;;;;;;;27.55;21.75;;;1.60;95.10;;;;;;5059930;28;20048;-48
2023/12/07 02:23:24;;;;;;;27.27;22.15;;;1.60;95.10;;;;;;5080325;28;20035;-52
2023/12/07 02:25:57;;;;;;;25.87;22.27;;;1.60;95.20;;;;;;5114623;28;20065;-51
2023/12/07 02:28:26;;;;;;;24.20;21.50;;;1.60;95.10;;;;;;5096222;28;20036;-52
2023/12/07 02:30:51;;;;;;;24.17;19.92;;;1.60;95.20;;;;;;5096355;28;20039;-53
2023/12/07 02:33:18;;;;;;;28.05;20.70;;;1.60;95.10;;;;;;5091611;28;20036;-52
2023/12/07 02:35:50;;;;;;;23.60;19.65;;;1.60;95.20;;;;;;5089356;28;20093;-50
2023/12/07 02:38:17;;;;;;;24.08;20.30;;;1.60;95.10;;;;;;5071927;28;20557;-52
2023/12/07 02:40:46;;;;;;;29.10;22.20;;;1.60;95.20;;;;;;5056091;28;20032;-49
2023/12/07 02:43:14;;;;;;;24.90;20.73;;;1.60;95.20;;;;;;5040789;28;20047;-49
2023/12/07 02:45:45;;;;;;;24.80;19.83;;;1.60;95.10;;;;;;5073336;28;20024;-48
2023/12/07 02:48:12;;;;;;;25.48;21.20;;;1.60;95.20;;;;;;5073853;28;20507;-48
2023/12/07 02:50:40;;;;;;;24.48;20.98;;;1.60;95.10;;;;;;5074250;28;20025;-52
2023/12/07 02:53:06;;;;;;;25.33;19.85;;;1.60;95.10;;;;;;5072787;28;20311;-49
2023/12/07 02:55:32;;;;;;;23.20;19.73;;;1.60;95.20;;;;;;5072807;28;20081;-50
2023/12/07 02:58:01;;;;;;;26.58;19.65;;;1.60;95.10;;;;;;5072988;28;20024;-49
2023/12/07 03:00:29;;;;;;;23.83;20.20;;;1.60;95.10;;;;;;5072339;28;20048;-49
2023/12/07 03:02:57;;;;;;;22.98;19.92;;;1.60;95.10;;;;;;5073821;28;20494;-49
2023/12/07 03:05:23;;;;;;;26.00;20.05;;;1.60;95.20;;;;;;5074200;28;20036;-49
2023/12/07 03:07:50;;;;;;;23.98;19.85;;;1.60;95.20;;;;;;5093335;28;20527;-52
2023/12/07 03:10:17;;;;;;;23.35;19.05;;;1.60;95.10;;;;;;5090183;28;20035;-51
2023/12/07 03:12:44;;;;;;;24.08;19.88;;;1.60;95.10;;;;;;5072858;28;20037;-50
2023/12/07 03:15:13;;;;;;;25.63;20.02;;;1.60;95.10;;;;;;5077472;28;20043;-51
2023/12/07 03:17:39;;;;;;;23.15;18.95;;;1.60;95.20;;;;;;5073144;28;20044;-54
2023/12/07 03:20:06;;;;;;;22.13;18.33;;;1.60;95.10;;;;;;5073040;28;20362;-50
2023/12/07 03:22:35;;;;;;;23.35;19.40;;;1.60;95.10;;;;;;5084391;28;20028;-50
2023/12/07 03:25:02;;;;;;;21.35;16.70;;;1.60;95.10;;;;;;5109675;28;20020;-50
2023/12/07 03:27:30;;;;;;;23.45;18.65;;;1.60;95.10;;;;;;5085609;28;20342;-52
2023/12/07 03:29:56;;;;;;;24.50;18.70;;;1.60;95.10;;;;;;5073214;28;20025;-52
2023/12/07 03:32:24;;;;;;;20.90;16.95;;;1.50;95.10;;;;;;5072851;28;20028;-52
2023/12/07 03:34:51;;;;;;;19.70;16.60;;;1.60;95.10;;;;;;5072849;28;20112;-52
2023/12/07 03:37:17;;;;;;;23.98;18.13;;;1.60;95.20;;;;;;5074023;28;20037;-52
2023/12/07 03:39:44;;;;;;;22.00;16.55;;;1.60;95.20;;;;;;5055030;28;20051;-49
2023/12/07 03:42:12;;;;;;;19.33;15.68;;;1.60;95.20;;;;;;5076331;28;20074;-51
2023/12/07 03:44:40;;;;;;;20.27;16.55;;;1.60;95.20;;;;;;5076914;28;20496;-52
2023/12/07 03:47:11;;;;;;;21.52;16.33;;;1.60;95.20;;;;;;5076904;28;20405;-50
2023/12/07 03:49:38;;;;;;;20.55;16.73;;;1.60;95.20;;;;;;5078152;28;20043;-54
2023/12/07 03:52:05;;;;;;;19.48;16.60;;;1.60;95.20;;;;;;5077957;28;20032;-51
2023/12/07 03:54:32;;;;;;;20.23;16.50;;;1.60;95.30;;;;;;5076765;28;20465;-49
2023/12/07 03:57:00;;;;;;;19.55;16.55;;;1.60;95.20;;;;;;5076622;28;20028;-52
2023/12/07 03:59:27;;;;;;;19.85;16.35;;;1.60;95.20;;;;;;5059338;28;20033;-52
2023/12/07 04:01:53;;;;;;;19.08;15.82;;;1.60;95.20;;;;;;5063537;28;20067;-51
2023/12/07 04:04:22;;;;;;;23.25;16.55;;;1.70;95.30;;;;;;5096835;28;20085;-49
2023/12/07 04:06:51;;;;;;;21.20;16.42;;;1.60;95.20;;;;;;5092654;28;20032;-50
2023/12/07 04:09:18;;;;;;;20.02;15.70;;;1.70;95.30;;;;;;5076442;28;20430;-48
2023/12/07 04:11:45;;;;;;;21.60;15.95;;;1.70;95.30;;;;;;5059004;28;20046;-48
2023/12/07 04:14:13;;;;;;;19.52;15.35;;;1.70;95.20;;;;;;5076512;28;20357;-51
2023/12/07 04:16:40;;;;;;;21.27;15.35;;;1.60;95.20;;;;;;5086575;28;20078;-48
2023/12/07 04:19:05;;;;;;;26.05;17.10;;;1.60;95.20;;;;;;5096221;28;20028;-52
2023/12/07 04:21:33;;;;;;;20.38;15.70;;;1.60;95.20;;;;;;5095391;28;20476;-50
2023/12/07 04:24:00;;;;;;;20.27;15.93;;;1.60;95.20;;;;;;5087484;28;20349;-53
2023/12/07 04:26:28;;;;;;;18.67;15.15;;;1.60;95.20;;;;;;5078408;28;20035;-54
2023/12/07 04:28:54;;;;;;;19.83;15.95;;;1.60;95.30;;;;;;5094712;28;20016;-51
2023/12/07 04:31:22;;;;;;;20.45;15.80;;;1.60;95.20;;;;;;5094600;28;20111;-51
2023/12/07 04:33:49;;;;;;;22.58;16.05;;;1.60;95.30;;;;;;5096566;28;20158;-54
2023/12/07 04:36:16;;;;;;;20.35;15.38;;;1.60;95.20;;;;;;5096409;28;20094;-52
2023/12/07 04:38:44;;;;;;;22.52;16.77;;;1.70;95.30;;;;;;5079548;28;20103;-55
2023/12/07 04:41:10;;;;;;;19.90;15.10;;;1.70;95.30;;;;;;5075711;28;20032;-55
2023/12/07 04:43:37;;;;;;;21.80;15.98;;;1.70;95.30;;;;;;5072448;28;20031;-56
2023/12/07 04:46:04;;;;;;;21.50;15.07;;;1.70;95.30;;;;;;5075734;28;20024;-54
2023/12/07 04:48:31;;;;;;;18.10;15.15;;;1.70;95.30;;;;;;5075845;28;20392;-54
2023/12/07 04:50:59;;;;;;;18.92;15.23;;;1.70;95.30;;;;;;5075622;28;20044;-54
2023/12/07 04:53:24;;;;;;;20.48;15.65;;;1.70;95.30;;;;;;5071912;28;20064;-51
2023/12/07 04:55:51;;;;;;;20.38;15.32;;;1.70;95.20;;;;;;5095807;28;20125;-54
2023/12/07 04:58:22;;;;;;;23.55;18.48;;;1.70;95.20;;;;;;5095879;28;20042;-50
2023/12/07 05:00:49;;;;;;;22.83;17.55;;;1.70;95.30;;;;;;5077056;28;20470;-53
2023/12/07 05:03:16;;;;;;;20.77;15.05;;;1.70;95.30;;;;;;5076054;28;20036;-49
2023/12/07 05:05:47;;;;;;;21.23;16.20;;;1.70;95.20;;;;;;5076795;28;20393;-52
2023/12/07 05:08:15;;;;;;;19.50;16.17;;;1.70;95.30;;;;;;5084780;28;20024;-52
2023/12/07 05:10:43;;;;;;;21.52;15.65;;;1.70;95.30;;;;;;5095548;28;20094;-54
2023/12/07 05:13:12;;;;;;;21.55;15.60;;;1.70;95.30;;;;;;5080688;28;20401;-53
2023/12/07 05:15:39;;;;;;;17.73;14.07;;;1.70;95.20;;;;;;5081187;28;20541;-55
2023/12/07 05:18:06;;;;;;;22.73;15.13;;;1.70;95.30;;;;;;5109236;28;20055;-49
2023/12/07 05:20:36;;;;;;;21.05;17.17;;;1.70;95.20;;;;;;5082350;28;20811;-54
2023/12/07 05:23:10;;;;;;;20.00;16.30;;;1.70;95.30;;;;;;5081280;28;20030;-49
2023/12/07 05:25:37;;;;;;;19.85;16.55;;;1.70;95.20;;;;;;5095356;28;20103;-53
2023/12/07 05:28:07;;;;;;;22.88;15.95;;;1.70;95.20;;;;;;5095155;28;20027;-54
2023/12/07 05:30:36;;;;;;;20.08;16.23;;;1.70;95.20;;;;;;5090748;28;20043;-55
2023/12/07 05:33:03;;;;;;;;;;;1.70;95.20;;;;;;5078125;28;20032;-53
2023/12/07 05:35:30;;;;;;;20.23;16.20;;;1.70;95.20;;;;;;5063999;28;19912;-52
2023/12/07 05:37:56;;;;;;;21.98;16.70;;;1.70;95.20;;;;;;5075990;28;20111;-56
2023/12/07 05:40:23;;;;;;;21.30;15.82;;;1.70;95.20;;;;;;5094780;28;20532;-53
2023/12/07 05:42:50;;;;;;;25.23;17.77;;;1.70;95.20;;;;;;5094242;28;20028;-54
2023/12/07 05:45:18;;;;;;;22.35;17.15;;;1.70;95.20;;;;;;5057047;28;20502;-53
2023/12/07 05:47:45;;;;;;;23.50;16.58;;;1.70;95.20;;;;;;5084521;28;20060;-55
2023/12/07 05:50:15;;;;;;;21.77;16.67;;;1.70;95.20;;;;;;5074573;28;20028;-51
2023/12/07 05:52:41;;;;;;;20.70;16.50;;;1.70;95.10;;;;;;5074688;28;20059;-55
2023/12/07 05:55:08;;;;;;;24.67;17.50;;;1.70;95.20;;;;;;5093701;28;20060;-54
2023/12/07 05:57:35;;;;;;;24.48;18.33;;;1.60;95.20;;;;;;5080497;28;20028;-55
2023/12/07 06:00:09;;;;;;;21.50;17.73;;;1.60;95.10;;;;;;5074236;28;20068;-53
2023/12/07 06:02:45;;;;;;;21.60;16.55;;;1.60;95.20;;;;;;5074419;28;20060;-55
2023/12/07 06:05:13;;;;;;;25.38;18.25;;;1.70;95.20;;;;;;5070701;28;20414;-56
2023/12/07 06:07:39;;;;;;;27.13;19.15;;;1.60;95.20;;;;;;5094227;28;20110;-56
2023/12/07 06:10:07;;;;;;;27.52;18.42;;;1.60;95.20;;;;;;5079026;28;20029;-55
2023/12/07 06:12:33;;;;;;;28.75;17.92;;;1.60;95.10;;;;;;5073875;28;20032;-53
2023/12/07 06:15:01;;;;;;;24.52;18.15;;;1.60;95.20;;;;;;5085984;28;20143;-51
2023/12/07 06:17:28;;;;;;;23.70;18.17;;;1.60;95.20;;;;;;5080733;28;20068;-54
2023/12/07 06:19:56;;;;;;;25.73;18.02;;;1.70;95.20;;;;;;5078422;28;20035;-54
2023/12/07 06:22:22;;;;;;;22.88;17.70;;;1.70;95.20;;;;;;5082911;28;20453;-52
2023/12/07 06:24:49;;;;;;;24.80;17.90;;;1.70;95.20;;;;;;5085123;28;20034;-52
2023/12/07 06:27:18;;;;;;;24.77;18.45;;;1.70;95.20;;;;;;5074264;28;20512;-49
2023/12/07 06:29:45;;;;;;;25.02;18.13;;;1.60;95.20;;;;;;5073721;28;20024;-50
2023/12/07 06:32:17;;;;;;;25.13;18.50;;;1.70;95.20;;;;;;5056182;28;20032;-51
2023/12/07 06:34:44;;;;;;;25.23;19.02;;;1.60;95.20;;;;;;5056460;28;20392;-51
2023/12/07 06:37:10;;;;;;;26.98;19.52;;;1.70;95.20;;;;;;5074933;28;20032;-49
2023/12/07 06:39:41;;;;;;;26.70;19.40;;;1.60;95.10;;;;;;5081295;28;20055;-51
2023/12/07 06:42:12;;;;;;;30.65;20.55;;;1.60;95.20;;;;;;5076269;28;20036;-55
2023/12/07 06:44:40;;;;;;;27.63;18.70;;;1.60;95.10;;;;;;5073224;28;20020;-52
2023/12/07 06:47:09;;;;;;;27.83;19.77;;;1.60;95.10;;;;;;5073362;28;20024;-50
2023/12/07 06:49:39;;;;;;;26.90;19.17;;;1.60;95.20;;;;;;5072766;28;20024;-51
2023/12/07 06:52:08;;;;;;;28.98;19.85;;;1.60;95.20;;;;;;5073053;28;20032;-51
2023/12/07 06:54:34;;;;;;;26.10;19.10;;;1.60;95.10;;;;;;5074493;28;20028;-51
2023/12/07 06:57:05;;;;;;;28.90;18.83;;;1.60;95.20;;;;;;5072818;28;20457;-51
2023/12/07 06:59:35;;;;;;;25.67;18.60;;;1.60;95.20;;;;;;5073299;28;20040;-55
2023/12/07 07:02:04;;;;;;;25.15;18.58;;;1.60;95.20;;;;;;5072984;28;20048;-53
2023/12/07 07:04:32;;;;;;;28.10;19.75;;;1.70;95.20;;;;;;5073946;28;20048;-52
2023/12/07 07:06:59;;;;;;;26.83;18.58;;;1.60;95.20;;;;;;5077200;28;20016;-51
2023/12/07 07:09:25;;;;;;;25.55;17.75;;;1.60;95.20;;;;;;5091883;28;20678;-52
2023/12/07 07:11:53;;;;;;;27.00;19.42;;;1.60;95.20;;;;;;5059973;28;20048;-51
2023/12/07 07:14:23;;;;;;;28.30;19.58;;;1.60;95.20;;;;;;5073222;28;20033;-54
2023/12/07 07:16:48;;;;;;;27.40;18.70;;;1.70;95.20;;;;;;5083191;28;20028;-55
2023/12/07 07:19:16;;;;;;;27.20;19.17;;;1.60;95.20;;;;;;5075518;28;20043;-52
2023/12/07 07:21:45;;;;;;;22.17;17.05;;;1.70;95.20;;;;;;5079994;28;20040;-51
2023/12/07 07:24:12;;;;;;;26.85;18.92;;;1.70;95.20;;;;;;5069104;28;20140;-53
2023/12/07 07:26:39;;;;;;;27.75;18.15;;;1.70;95.20;;;;;;5073689;28;20112;-49
2023/12/07 07:29:06;;;;;;;27.05;18.50;;;1.70;95.20;;;;;;5073245;28;20060;-51
2023/12/07 07:31:33;;;;;;;26.10;18.38;;;1.70;95.20;;;;;;5067090;28;20049;-52
2023/12/07 07:34:01;;;;;;;24.13;17.90;;;1.70;95.20;;;;;;5079851;28;20115;-53
2023/12/07 07:36:37;;;;;;;26.42;18.55;;;1.70;95.20;;;;;;5092990;28;20030;-54
2023/12/07 07:39:07;;;;;;;27.20;18.88;;;1.60;95.10;;;;;;5083137;28;20032;-51
2023/12/07 07:41:37;;;;;;;28.33;21.02;;;1.60;95.20;;;;;;5089150;28;20140;-49
2023/12/07 07:44:04;;;;;;;26.30;20.23;;;1.70;95.20;;;;;;5082906;28;20021;-55
2023/12/07 07:46:32;;;;;;;27.40;19.27;;;1.60;95.20;;;;;;5061670;28;20060;-52
2023/12/07 07:49:00;;;;;;;29.25;20.85;;;1.60;95.10;;;;;;5077588;28;20030;-53
2023/12/07 07:51:27;;;;;;;24.98;19.48;;;1.60;95.10;;;;;;5055049;28;20392;-50
2023/12/07 07:53:53;;;;;;;24.20;18.77;;;1.60;95.20;;;;;;5073283;28;20029;-53
2023/12/07 07:56:21;;;;;;;27.27;19.45;;;1.60;95.20;;;;;;5073889;28;20499;-53
2023/12/07 07:58:49;;;;;;;28.98;20.58;;;1.70;95.20;;;;;;5059588;28;20067;-52
2023/12/07 08:01:16;;;;;;;25.20;19.60;;;1.70;95.20;;;;;;5081708;28;20048;-53
2023/12/07 08:03:44;;;;;;;24.45;17.75;;;1.60;95.20;;;;;;5081471;28;20393;-49
2023/12/07 08:06:14;;;;;;;26.08;18.63;;;1.70;95.20;;;;;;5071714;28;20024;-52
2023/12/07 08:08:40;;;;;;;25.30;17.73;;;1.70;95.20;;;;;;5055219;28;20036;-55
2023/12/07 08:11:08;;;;;;;25.60;17.98;;;1.70;95.20;;;;;;5073730;28;20078;-53
2023/12/07 08:13:35;;;;;;;24.35;17.75;;;1.70;95.30;;;;;;5072441;28;20419;-54
2023/12/07 08:16:02;;;;;;;25.70;17.63;;;1.70;95.20;;;;;;5073348;28;20024;-53
2023/12/07 08:18:30;;;;;;;28.02;19.73;;;1.70;95.20;;;;;;5072791;28;20119;-52
2023/12/07 08:20:56;;;;;;;25.15;19.00;;;1.70;95.20;;;;;;5072314;28;20032;-54
2023/12/07 08:23:21;;;;;;;22.88;17.25;;;1.70;95.20;;;;;;5067267;28;20104;-52
2023/12/07 08:25:48;;;;;;;26.25;18.35;;;1.70;95.20;;;;;;5067123;28;20127;-52
2023/12/07 08:28:17;;;;;;;25.35;17.98;;;1.80;95.20;;;;;;5076216;28;20024;-53
2023/12/07 08:30:44;;;;;;;25.35;17.65;;;1.70;95.20;;;;;;5076079;28;20032;-54
2023/12/07 08:33:10;;;;;;;24.13;17.45;;;1.70;95.20;;;;;;5075936;28;20029;-52
2023/12/07 08:35:37;;;;;;;23.85;18.02;;;1.70;95.20;;;;;;5076042;28;20025;-50
2023/12/07 08:38:05;;;;;;;23.98;16.58;;;1.80;95.20;;;;;;5058130;28;20028;-53
2023/12/07 08:40:32;;;;;;;25.63;18.63;;;1.80;95.20;;;;;;5087621;28;20021;-52
2023/12/07 08:42:59;;;;;;;28.65;19.95;;;1.80;95.20;;;;;;5081456;28;20055;-50
2023/12/07 08:45:26;;;;;;;25.55;19.10;;;1.80;95.20;;;;;;5075809;28;20488;-52
2023/12/07 08:47:52;;;;;;;23.75;17.27;;;1.80;95.20;;;;;;5075937;28;20146;-52
2023/12/07 08:50:24;;;;;;;24.80;17.63;;;1.90;95.20;;;;;;5076406;28;20107;-50
2023/12/07 08:52:53;;;;;;;26.60;18.27;;;1.90;95.20;;;;;;5040343;28;20142;-52
2023/12/07 08:55:20;;;;;;;23.37;17.80;;;1.90;95.20;;;;;;5077121;28;20019;-50
2023/12/07 08:57:48;;;;;;;23.08;16.98;;;1.90;95.10;;;;;;5073829;28;20077;-53
2023/12/07 09:00:15;;;;;;;23.48;16.38;;;1.90;95.20;;;;;;5074143;28;20044;-52
2023/12/07 09:02:43;;;;;;;24.65;16.98;;;1.90;95.10;;;;;;5088648;28;20441;-50
2023/12/07 09:05:09;;;;;;;24.17;16.92;;;1.90;95.20;;;;;;5077406;28;20035;-50
2023/12/07 09:07:38;;;;;;;22.77;16.95;;;1.90;95.20;;;;;;5076985;28;20095;-51
2023/12/07 09:10:08;;;;;;;25.00;18.33;;;1.90;95.10;;;;;;5079322;28;20035;-50
2023/12/07 09:12:39;;;;;;;23.08;17.73;;;1.90;95.20;;;;;;5075199;28;20032;-51
2023/12/07 09:15:07;;;;;;;27.35;17.65;;;1.90;95.20;;;;;;5075456;28;20025;-53
2023/12/07 09:17:33;;;;;;;25.25;17.48;;;2.00;95.20;;;;;;5076215;28;20028;-49
2023/12/07 09:19:59;;;;;;;22.50;16.52;;;2.00;95.10;;;;;;5075643;28;20032;-51
2023/12/07 09:22:27;;;;;;;23.08;16.90;;;2.00;95.20;;;;;;5075279;28;20043;-48
2023/12/07 09:24:56;;;;;;;24.65;17.92;;;2.00;95.20;;;;;;5080021;28;20032;-54
2023/12/07 09:27:23;;;;;;;25.10;17.77;;;2.00;95.20;;;;;;5076556;28;20028;-52
2023/12/07 09:29:51;;;;;;;23.80;17.20;;;2.00;95.10;;;;;;5075098;28;20025;-54
2023/12/07 09:32:18;;;;;;;25.38;17.13;;;2.00;95.10;;;;;;5075229;28;20450;-52
2023/12/07 09:34:47;;;;;;;26.85;17.67;;;2.10;95.10;;;;;;5075273;28;20053;-49
2023/12/07 09:37:19;;;;;;;21.98;16.20;;;2.10;95.10;;;;;;5057875;28;20044;-51
2023/12/07 09:39:51;;;;;;;26.45;18.20;;;2.10;95.10;;;;;;5089589;28;20578;-51
2023/12/07 09:42:19;;;;;;;21.08;15.85;;;2.20;95.10;;;;;;5084147;28;20124;-49
2023/12/07 09:44:46;;;;;;;21.52;15.25;;;2.10;95.00;;;;;;5074777;28;20020;-49
2023/12/07 09:47:16;;;;;;;23.50;17.05;;;2.10;95.00;;;;;;5074699;28;20021;-51
2023/12/07 09:49:42;;;;;;;;;;;2.20;95.00;;;;;;5076257;28;20032;-55
2023/12/07 09:52:11;;;;;;;20.23;15.05;;;2.20;95.00;;;;;;5079576;28;19981;-50
2023/12/07 09:54:42;;;;;;;22.10;16.35;;;2.20;95.00;;;;;;5060359;28;20058;-51
2023/12/07 09:57:09;;;;;;;22.42;16.55;;;2.20;95.00;;;;;;5058894;28;20039;-48
2023/12/07 09:59:36;;;;;;;23.50;16.73;;;2.20;94.90;;;;;;5094488;28;20028;-51
2023/12/07 10:02:07;;;;;;;22.40;15.35;;;2.20;94.90;;;;;;5094209;28;20621;-47
2023/12/07 10:04:36;;;;;;;22.13;14.82;;;2.20;94.80;;;;;;5095045;28;20435;-51
2023/12/07 10:07:03;;;;;;;25.63;17.10;;;2.20;94.90;;;;;;5092608;28;20028;-53
2023/12/07 10:09:29;;;;;;;21.60;16.05;;;2.20;94.90;;;;;;5050881;28;20037;-49
2023/12/07 10:12:06;;;;;;;21.30;16.40;;;2.20;94.90;;;;;;5081745;28;20028;-53
2023/12/07 10:14:33;;;;;;;21.05;16.05;;;2.30;94.80;;;;;;5073140;28;20090;-51
2023/12/07 10:17:00;;;;;;;20.58;16.13;;;2.30;94.80;;;;;;5073286;28;20040;-50
2023/12/07 10:19:28;;;;;;;22.23;15.77;;;2.30;94.80;;;;;;5028456;28;20057;-50
2023/12/07 10:21:56;;;;;;;21.88;15.80;;;2.30;94.80;;;;;;5070378;28;20088;-52
2023/12/07 10:24:31;;;;;;;19.95;14.65;;;2.30;94.80;;;;;;5073245;28;20028;-49
2023/12/07 10:26:59;;;;;;;18.95;14.02;;;2.30;94.80;;;;;;5071107;28;20028;-52
2023/12/07 10:29:27;;;;;;;21.52;15.60;;;2.30;94.70;;;;;;5074141;28;20103;-50
2023/12/07 10:32:04;;;;;;;20.35;15.45;;;2.40;94.70;;;;;;5072726;28;20028;-52
2023/12/07 10:34:33;;;;;;;20.75;16.40;;;2.40;94.70;;;;;;5068731;28;20044;-48
2023/12/07 10:37:04;;;;;;;21.60;16.52;;;2.40;94.60;;;;;;5071940;28;20093;-50
2023/12/07 10:39:32;;;;;;;20.92;15.95;;;2.40;94.60;;;;;;5073498;28;20039;-46
2023/12/07 10:42:02;;;;;;;22.20;16.42;;;2.40;94.60;;;;;;5081497;28;20020;-46
2023/12/07 10:44:29;;;;;;;;;;;2.40;94.60;;;;;;5059540;28;20028;-47
2023/12/07 10:46:59;;;;;;;22.55;15.52;;;2.40;94.60;;;;;;5076057;28;19923;-48
2023/12/07 10:49:26;;;;;;;22.33;14.70;;;2.40;94.60;;;;;;5040969;28;20060;-46
2023/12/07 10:52:01;;;;;;;21.90;15.15;;;2.40;94.60;;;;;;5073168;28;20379;-46
2023/12/07 10:55:08;;;;;;;23.90;16.85;;;2.40;94.50;;;;;;5072396;28;20051;-46
2023/12/07 10:57:37;;;;;;;19.45;15.27;;;2.40;94.50;;;;;;5005954;28;20049;-49
2023/12/07 11:00:14;;;;;;;18.88;14.18;;;2.40;94.50;;;;;;5061968;28;20035;-48
2023/12/07 11:02:43;;;;;;;27.35;16.13;;;2.50;94.50;;;;;;5053267;28;20128;-46
2023/12/07 11:05:11;;;;;;;21.10;15.32;;;2.40;94.50;;;;;;5064208;28;20020;-47
2023/12/07 11:08:07;;;;;;;21.95;15.10;;;2.50;94.40;;;;;;5072656;28;20033;-49
2023/12/07 11:10:48;;;;;;;23.67;16.02;;;2.40;94.30;;;;;;5048595;28;20042;-50
2023/12/07 11:13:33;;;;;;;22.42;15.15;;;2.40;94.40;;;;;;5033922;28;20075;-46
2023/12/07 11:16:00;;;;;;;20.58;16.27;;;2.50;94.40;;;;;;5052664;28;20071;-46
2023/12/07 11:18:31;;;;;;;22.77;15.90;;;2.50;94.40;;;;;;5053913;28;20037;-51
2023/12/07 11:20:58;;;;;;;20.92;16.17;;;2.50;94.40;;;;;;5061463;28;20083;-51
2023/12/07 11:23:28;;;;;;;21.88;14.98;;;2.50;94.30;;;;;;5068735;28;20508;-49
2023/12/07 11:25:55;;;;;;;23.90;16.13;;;2.50;94.30;;;;;;5045739;28;20087;-51
2023/12/07 11:28:44;;;;;;;19.33;14.63;;;2.50;94.30;;;;;;5070773;28;20029;-46
2023/12/07 11:31:11;;;;;;;20.58;15.45;;;2.60;94.40;;;;;;5054959;28;20044;-52
2023/12/07 11:33:42;;;;;;;25.13;16.17;;;2.60;94.30;;;;;;5051365;28;20029;-50
2023/12/07 11:36:12;;;;;;;18.60;13.65;;;2.60;94.30;;;;;;5029193;28;20032;-48
2023/12/07 11:39:29;;;;;;;19.60;13.77;;;2.60;94.20;;;;;;5047836;28;20483;-47
2023/12/07 11:42:08;;;;;;;22.55;15.88;;;2.60;94.20;;;;;;5034125;28;20028;-46
2023/12/07 11:44:40;;;;;;;23.48;14.77;;;2.60;94.10;;;;;;5055270;28;20020;-46
2023/12/07 11:47:16;;;;;;;24.08;15.98;;;2.60;94.10;;;;;;5072271;28;20083;-46
2023/12/07 11:49:44;;;;;;;20.70;16.02;;;2.60;94.00;;;;;;5051512;28;20518;-46
2023/12/07 11:52:29;;;;;;;23.40;15.18;;;2.60;93.90;;;;;;5053784;28;20043;-46
2023/12/07 11:54:58;;;;;;;21.33;15.85;;;2.60;93.90;;;;;;5052667;28;20025;-47
2023/12/07 11:57:26;;;;;;;21.40;15.05;;;2.60;93.80;;;;;;5052577;28;20028;-46
2023/12/07 12:00:07;;;;;;;21.23;15.77;;;2.60;93.80;;;;;;5053152;28;20045;-46
2023/12/07 12:02:37;;;;;;;19.67;15.70;;;2.60;93.80;;;;;;5068099;28;20082;-46
2023/12/07 12:05:05;;;;;;;;;;;2.60;93.80;;;;;;5077241;28;20016;-45
2023/12/07 12:07:33;;;;;;;22.63;15.82;;;2.60;93.80;;;;;;5077699;28;19905;-46
2023/12/07 12:10:04;;;;;;;22.60;16.35;;;2.60;93.80;;;;;;5076788;28;20028;-46
2023/12/07 12:12:34;;;;;;;21.77;16.05;;;2.60;93.70;;;;;;5072939;28;20032;-46
2023/12/07 12:15:02;;;;;;;25.00;16.80;;;2.60;93.80;;;;;;5086795;28;20043;-47
2023/12/07 12:17:31;;;;;;;20.30;15.65;;;2.70;93.70;;;;;;5093752;28;20457;-46
2023/12/07 12:20:00;;;;;;;25.10;17.45;;;2.60;93.60;;;;;;5077358;28;20033;-46
2023/12/07 12:22:28;;;;;;;20.23;15.45;;;2.50;93.50;;;;;;5080917;28;20478;-47
2023/12/07 12:25:01;;;;;;;24.33;16.80;;;2.60;93.60;;;;;;5079657;28;20024;-46
2023/12/07 12:27:28;;;;;;;20.55;16.38;;;2.60;93.70;;;;;;5076339;28;20323;-46
2023/12/07 12:29:56;;;;;;;22.30;16.45;;;2.60;93.70;;;;;;5075411;28;20449;-46
2023/12/07 12:32:22;;;;;;;23.92;17.20;;;2.60;93.60;;;;;;5067861;28;20051;-47
2023/12/07 12:34:54;;;;;;;26.17;17.35;;;2.60;93.60;;;;;;5076018;28;20037;-50
2023/12/07 12:37:20;;;;;;;27.20;17.15;;;2.60;93.60;;;;;;5076756;28;20111;-48
2023/12/07 12:39:48;;;;;;;23.25;17.45;;;2.60;93.60;;;;;;5071869;28;20136;-47
2023/12/07 12:42:13;;;;;;;23.48;17.63;;;2.50;93.60;;;;;;5067447;28;20051;-47
2023/12/07 12:44:42;;;;;;;24.63;16.17;;;2.60;93.60;;;;;;5075934;28;20112;-47
2023/12/07 12:47:08;;;;;;;21.42;16.30;;;2.50;93.60;;;;;;5058322;28;20029;-45